createdAt,value
2023-01-23T00:01:35.183Z,93.40
2023-01-23T00:04:05.874Z,92.98
2023-01-23T00:06:33.808Z,93.91
2023-01-23T00:09:01.688Z,94.06
2023-01-23T00:11:32.622Z,93.29
2023-01-23T00:14:01.852Z,93.56
2023-01-23T00:16:32.034Z,93.62
2023-01-23T00:18:59.846Z,93.27
2023-01-23T00:21:29.086Z,93.35
2023-01-23T00:23:59.405Z,93.18
2023-01-23T00:26:29.759Z,93.35
2023-01-23T00:28:57.576Z,93.81
2023-01-23T00:31:29.121Z,93.19
2023-01-23T00:34:02.057Z,93.26
2023-01-23T00:36:40.511Z,93.20
2023-01-23T00:39:15.102Z,93.20
2023-01-23T00:41:46.009Z,93.46
2023-01-23T00:44:14.189Z,93.63
2023-01-23T00:46:42.325Z,93.40
2023-01-23T00:49:10.023Z,93.63
2023-01-23T00:51:37.685Z,93.66
2023-01-23T00:54:05.982Z,93.56
2023-01-23T00:56:33.583Z,93.15
2023-01-23T00:59:01.290Z,93.40
2023-01-23T01:01:31.592Z,93.16
2023-01-23T01:04:00.452Z,93.68
2023-01-23T01:06:29.843Z,93.16
2023-01-23T01:08:59.576Z,93.51
2023-01-23T01:11:27.273Z,93.38
2023-01-23T01:13:54.872Z,93.54
2023-01-23T01:16:24.460Z,93.76
2023-01-23T01:18:52.204Z,93.63
2023-01-23T01:21:20.206Z,93.32
2023-01-23T01:23:47.988Z,93.53
2023-01-23T01:26:15.591Z,93.54
2023-01-23T01:28:43.388Z,93.52
2023-01-23T01:31:14.534Z,93.62
2023-01-23T01:33:43.107Z,93.58
2023-01-23T01:36:15.746Z,93.17
2023-01-23T01:38:44.367Z,93.32
2023-01-23T01:41:13.322Z,93.36
2023-01-23T01:43:42.090Z,94.01
2023-01-23T01:46:18.983Z,93.74
2023-01-23T01:49:02.329Z,93.58
2023-01-23T01:51:44.193Z,93.47
2023-01-23T01:54:35.668Z,93.63
2023-01-23T01:57:18.454Z,94.01
2023-01-23T02:00:12.686Z,93.69
2023-01-23T02:02:53.521Z,93.83
2023-01-23T02:05:26.061Z,93.71
2023-01-23T02:08:03.825Z,93.74
2023-01-23T02:10:33.822Z,93.96
2023-01-23T02:13:39.336Z,93.98
2023-01-23T02:16:08.919Z,93.81
2023-01-23T02:18:42.724Z,94.30
2023-01-23T02:21:12.930Z,94.12
2023-01-23T02:23:52.672Z,94.08
2023-01-23T02:26:29.241Z,94.29
2023-01-23T02:28:57.435Z,94.17
2023-01-23T02:31:28.916Z,93.92
2023-01-23T02:33:59.081Z,94.00
2023-01-23T02:36:30.748Z,94.08
2023-01-23T02:39:27.654Z,94.11
2023-01-23T02:41:58.167Z,94.48
2023-01-23T02:44:39.659Z,94.67
2023-01-23T02:47:11.925Z,94.58
2023-01-23T02:52:43.687Z,94.41
2023-01-23T02:55:11.505Z,94.08
2023-01-23T02:57:39.210Z,94.16
2023-01-23T03:00:16.567Z,94.24
2023-01-23T03:02:45.572Z,94.65
2023-01-23T03:05:13.658Z,94.23
2023-01-23T03:07:41.365Z,94.37
2023-01-23T03:10:12.378Z,94.52
2023-01-23T03:12:43.595Z,94.48
2023-01-23T03:15:11.819Z,94.56
2023-01-23T03:17:40.223Z,94.47
2023-01-23T03:20:08.833Z,94.65
2023-01-23T03:22:36.383Z,94.18
2023-01-23T03:25:04.244Z,94.19
2023-01-23T03:27:32.900Z,94.06
2023-01-23T03:30:21.952Z,94.54
2023-01-23T03:32:52.626Z,94.18
2023-01-23T03:35:20.533Z,94.40
2023-01-23T03:37:52.361Z,94.54
2023-01-23T03:40:41.414Z,94.23
2023-01-23T03:43:10.857Z,94.70
2023-01-23T03:45:43.656Z,94.27
2023-01-23T03:48:11.295Z,94.58
2023-01-23T03:50:39.065Z,94.60
2023-01-23T03:53:06.705Z,94.68
2023-01-23T03:55:34.299Z,94.66
2023-01-23T03:58:01.867Z,94.56
2023-01-23T04:00:31.590Z,94.66
2023-01-23T04:03:06.855Z,94.81
2023-01-23T04:05:35.246Z,94.56
2023-01-23T04:08:03.206Z,94.96
2023-01-23T04:10:31.485Z,94.34
2023-01-23T04:13:04.696Z,95.07
2023-01-23T04:15:35.443Z,95.44
2023-01-23T04:18:06.974Z,95.24
2023-01-23T04:20:34.665Z,94.90
2023-01-23T04:23:02.215Z,95.26
2023-01-23T04:25:30.892Z,94.92
2023-01-23T04:27:58.591Z,94.98
2023-01-23T04:30:26.326Z,94.67
2023-01-23T04:32:54.143Z,94.97
2023-01-23T04:35:21.775Z,94.69
2023-01-23T04:37:49.365Z,94.99
2023-01-23T04:40:17.747Z,95.26
2023-01-23T04:42:53.186Z,95.12
2023-01-23T04:45:47.134Z,94.77
2023-01-23T04:48:32.426Z,94.91
2023-01-23T04:51:00.076Z,94.71
2023-01-23T04:53:27.851Z,94.96
2023-01-23T04:56:01.092Z,95.65
2023-01-23T04:58:28.974Z,95.36
2023-01-23T05:01:07.161Z,95.12
2023-01-23T05:03:37.428Z,95.08
2023-01-23T05:06:05.300Z,95.45
2023-01-23T05:08:34.188Z,95.01
2023-01-23T05:11:34.487Z,95.67
2023-01-23T05:14:02.804Z,94.79
2023-01-23T05:16:32.251Z,95.30
2023-01-23T05:19:19.788Z,94.99
2023-01-23T05:21:48.017Z,94.93
2023-01-23T05:24:18.481Z,94.39
2023-01-23T05:26:46.624Z,94.83
2023-01-23T05:29:14.815Z,95.24
2023-01-23T05:31:52.088Z,94.39
2023-01-23T05:34:40.032Z,94.52
2023-01-23T05:37:18.410Z,94.14
2023-01-23T05:39:50.149Z,95.02
2023-01-23T05:42:19.018Z,94.18
2023-01-23T05:44:58.344Z,94.73
2023-01-23T05:47:39.332Z,94.26
2023-01-23T05:50:08.989Z,94.55
2023-01-23T05:52:37.956Z,94.92
2023-01-23T05:55:06.932Z,94.38
2023-01-23T05:57:35.959Z,94.40
2023-01-23T06:00:41.902Z,94.61
2023-01-23T06:03:33.237Z,94.42
2023-01-23T06:06:24.505Z,94.41
2023-01-23T06:08:52.999Z,94.08
2023-01-23T06:11:20.543Z,94.65
2023-01-23T06:13:48.189Z,94.63
2023-01-23T06:16:15.843Z,94.83
2023-01-23T06:18:43.485Z,94.35
2023-01-23T06:21:11.328Z,94.78
2023-01-23T06:23:39.766Z,94.51
2023-01-23T06:26:07.352Z,94.63
2023-01-23T06:28:36.172Z,94.62
2023-01-23T06:31:06.589Z,94.71
2023-01-23T06:33:51.870Z,94.61
2023-01-23T06:36:22.148Z,94.66
2023-01-23T06:38:50.322Z,95.03
2023-01-23T06:41:22.869Z,94.95
2023-01-23T06:43:53.724Z,94.95
2023-01-23T06:46:24.719Z,94.84
2023-01-23T06:48:54.306Z,94.74
2023-01-23T06:51:22.498Z,95.50
2023-01-23T06:53:50.435Z,95.78
2023-01-23T06:56:18.137Z,95.11
2023-01-23T06:58:46.846Z,95.32
2023-01-23T07:01:26.507Z,95.00
2023-01-23T07:04:12.763Z,95.83
2023-01-23T07:06:42.232Z,95.50
2023-01-23T07:09:11.825Z,95.82
2023-01-23T07:11:40.311Z,95.80
2023-01-23T07:14:08.737Z,95.67
2023-01-23T07:16:38.456Z,95.83
2023-01-23T07:19:06.492Z,96.18
2023-01-23T07:21:36.797Z,95.29
2023-01-23T07:24:04.838Z,95.80
2023-01-23T07:26:32.866Z,96.46
2023-01-23T07:29:00.475Z,95.99
2023-01-23T07:31:28.289Z,95.95
2023-01-23T07:33:55.902Z,95.96
2023-01-23T07:36:23.452Z,96.33
2023-01-23T07:38:51.179Z,96.78
2023-01-23T07:41:18.833Z,96.46
2023-01-23T07:43:46.627Z,95.96
2023-01-23T07:46:14.603Z,96.06
2023-01-23T07:48:42.264Z,96.81
2023-01-23T07:51:10.158Z,96.14
2023-01-23T07:53:37.791Z,96.33
2023-01-23T07:56:06.301Z,96.57
2023-01-23T07:58:34.227Z,97.03
2023-01-23T08:01:08.824Z,96.53
2023-01-23T08:03:36.574Z,96.63
2023-01-23T08:06:04.399Z,96.45
2023-01-23T08:08:32.097Z,96.65
2023-01-23T08:11:03.273Z,96.64
2023-01-23T08:13:30.859Z,96.57
2023-01-23T08:15:59.439Z,96.72
2023-01-23T08:18:29.524Z,97.12
2023-01-23T08:20:58.754Z,96.43
2023-01-23T08:23:32.204Z,96.72
2023-01-23T08:26:02.275Z,96.96
2023-01-23T08:28:30.046Z,96.44
2023-01-23T08:31:04.821Z,97.35
2023-01-23T08:33:34.930Z,96.63
2023-01-23T08:36:03.229Z,96.33
2023-01-23T08:38:31.934Z,96.86
2023-01-23T08:41:01.508Z,96.81
2023-01-23T08:43:29.979Z,97.14
2023-01-23T08:45:59.381Z,96.79
2023-01-23T08:48:27.890Z,96.75
2023-01-23T08:51:07.905Z,96.92
2023-01-23T08:53:36.528Z,97.03
2023-01-23T08:56:07.257Z,97.48
2023-01-23T08:58:35.173Z,97.00
2023-01-23T09:01:02.804Z,96.66
2023-01-23T09:03:30.568Z,96.92
2023-01-23T09:06:02.183Z,97.66
2023-01-23T09:08:29.809Z,97.40
2023-01-23T09:11:02.411Z,97.19
2023-01-23T09:13:30.255Z,97.14
2023-01-23T09:15:58.265Z,97.61
2023-01-23T09:18:26.192Z,97.51
2023-01-23T09:20:54.623Z,97.03
2023-01-23T09:23:22.858Z,97.23
2023-01-23T09:25:50.583Z,97.65
2023-01-23T09:28:18.258Z,97.79
2023-01-23T09:30:45.922Z,97.78
2023-01-23T09:33:13.575Z,97.01
2023-01-23T09:35:41.338Z,96.87
2023-01-23T09:38:09.019Z,97.31
2023-01-23T09:40:49.992Z,97.28
2023-01-23T09:44:07.669Z,97.49
2023-01-23T09:46:37.893Z,97.40
2023-01-23T09:49:17.433Z,97.39
2023-01-23T09:51:49.764Z,97.30
2023-01-23T09:54:36.077Z,97.70
2023-01-23T09:57:12.652Z,97.87
2023-01-23T09:59:58.399Z,96.97
2023-01-23T10:02:27.970Z,97.22
2023-01-23T10:04:58.153Z,98.14
2023-01-23T10:07:28.705Z,98.01
2023-01-23T10:10:02.041Z,97.51
2023-01-23T10:12:51.770Z,97.71
2023-01-23T10:15:28.112Z,98.20
2023-01-23T10:18:07.682Z,97.38
2023-01-23T10:20:47.064Z,97.63
2023-01-23T10:23:24.404Z,97.51
2023-01-23T10:25:53.131Z,97.24
2023-01-23T10:28:29.923Z,97.97
2023-01-23T10:31:04.048Z,97.68
2023-01-23T10:33:38.260Z,97.60
2023-01-23T10:36:41.828Z,98.03
2023-01-23T10:39:31.704Z,98.66
2023-01-23T10:42:02.352Z,97.74
2023-01-23T10:44:30.735Z,98.48
2023-01-23T10:47:02.285Z,97.87
2023-01-23T10:49:35.358Z,97.97
2023-01-23T10:52:03.968Z,97.99
2023-01-23T10:54:45.849Z,98.72
2023-01-23T10:57:13.479Z,97.88
2023-01-23T10:59:52.946Z,98.28
2023-01-23T11:02:32.617Z,98.12
2023-01-23T11:05:01.225Z,97.88
2023-01-23T11:07:37.081Z,98.79
2023-01-23T11:10:07.580Z,98.37
2023-01-23T11:12:47.903Z,98.04
2023-01-23T11:15:40.926Z,98.24
2023-01-23T11:18:31.196Z,98.19
2023-01-23T11:20:59.326Z,98.15
2023-01-23T11:23:27.522Z,98.60
2023-01-23T11:25:55.866Z,98.47
2023-01-23T11:28:27.927Z,98.22
2023-01-23T11:31:14.114Z,98.39
2023-01-23T11:34:03.671Z,98.08
2023-01-23T11:36:48.686Z,98.07
2023-01-23T11:39:36.938Z,98.15
2023-01-23T11:42:04.803Z,98.98
2023-01-23T11:44:45.108Z,98.64
2023-01-23T11:47:34.619Z,98.60
2023-01-23T11:50:11.788Z,98.29
2023-01-23T11:53:41.109Z,98.99
2023-01-23T11:56:30.776Z,98.18
2023-01-23T11:59:24.028Z,98.41
2023-01-23T12:02:03.043Z,98.88
2023-01-23T12:04:59.328Z,99.13
2023-01-23T12:07:27.662Z,99.15
2023-01-23T12:10:28.136Z,98.14
2023-01-23T12:13:23.529Z,98.80
2023-01-23T12:16:16.168Z,99.08
2023-01-23T12:19:17.645Z,98.98
2023-01-23T12:22:15.688Z,98.73
2023-01-23T12:25:12.223Z,98.75
2023-01-23T12:27:45.546Z,99.21
2023-01-23T12:30:39.055Z,98.49
2023-01-23T12:33:35.669Z,99.13
2023-01-23T12:36:14.306Z,99.04
2023-01-23T12:38:41.888Z,98.87
2023-01-23T12:41:22.273Z,98.56
2023-01-23T12:43:57.613Z,98.52
2023-01-23T12:47:12.865Z,98.85
2023-01-23T12:49:50.914Z,98.74
2023-01-23T12:52:40.167Z,98.75
2023-01-23T12:55:31.366Z,98.73
2023-01-23T12:58:08.893Z,99.23
2023-01-23T13:01:14.214Z,99.46
2023-01-23T13:03:58.045Z,99.26
2023-01-23T13:06:32.214Z,98.57
2023-01-23T13:09:17.735Z,99.18
2023-01-23T13:12:19.655Z,99.32
2023-01-23T13:15:06.858Z,99.30
2023-01-23T13:17:41.781Z,98.79
2023-01-23T13:20:49.254Z,99.04
2023-01-23T13:23:23.187Z,99.04
2023-01-23T13:26:15.344Z,99.22
2023-01-23T13:28:53.978Z,98.76
2023-01-23T13:31:46.444Z,98.95
2023-01-23T13:34:17.366Z,98.35
2023-01-23T13:36:47.087Z,99.10
2023-01-23T13:39:17.683Z,98.96
2023-01-23T13:41:46.381Z,99.05
2023-01-23T13:44:40.209Z,98.76
2023-01-23T14:22:40.127Z,98.90
2023-01-23T14:25:17.642Z,98.95
2023-01-23T14:27:53.185Z,98.54
2023-01-23T14:30:27.347Z,98.37
2023-01-23T14:32:55.744Z,98.16
2023-01-23T14:35:24.833Z,98.49
2023-01-23T14:37:56.343Z,98.46
2023-01-23T14:40:28.044Z,98.22
2023-01-23T14:43:04.898Z,98.23
2023-01-23T14:45:33.507Z,97.73
2023-01-23T14:48:06.668Z,97.86
2023-01-23T14:50:34.999Z,98.03
2023-01-23T14:53:07.087Z,97.85
2023-01-23T14:55:39.906Z,97.99
2023-01-23T14:58:14.714Z,97.84
2023-01-23T15:00:46.357Z,98.20
2023-01-23T15:03:38.433Z,98.21
2023-01-23T15:06:20.539Z,97.58
2023-01-23T15:08:49.792Z,97.51
2023-01-23T15:11:25.361Z,97.58
2023-01-23T15:13:58.760Z,97.87
2023-01-23T15:16:34.119Z,97.99
2023-01-23T15:19:08.124Z,97.73
2023-01-23T15:21:41.614Z,97.65
2023-01-23T15:24:09.283Z,97.33
2023-01-23T15:26:38.763Z,97.53
2023-01-23T15:29:09.439Z,97.45
2023-01-23T15:31:39.946Z,97.85
2023-01-23T15:34:16.905Z,97.97
2023-01-23T15:37:19.646Z,97.25
2023-01-23T15:39:54.385Z,97.71
2023-01-23T15:42:26.686Z,97.62
2023-01-23T15:44:54.943Z,97.14
2023-01-23T15:47:22.561Z,97.42
2023-01-23T15:49:50.170Z,97.19
2023-01-23T15:52:29.271Z,97.34
2023-01-23T15:55:03.357Z,96.99
2023-01-23T15:57:31.054Z,97.68
2023-01-23T15:59:58.656Z,97.51
2023-01-23T16:02:31.627Z,97.07
2023-01-23T16:05:02.207Z,96.73
2023-01-23T16:07:36.017Z,97.52
2023-01-23T16:10:31.170Z,97.30
2023-01-23T16:12:58.794Z,97.66
2023-01-23T16:15:29.243Z,97.51
2023-01-23T16:17:57.360Z,97.18
2023-01-23T16:20:31.819Z,97.28
2023-01-23T16:23:14.119Z,97.25
2023-01-23T16:25:45.353Z,97.77
2023-01-23T16:28:18.558Z,97.04
2023-01-23T16:30:47.548Z,97.21
2023-01-23T16:33:15.935Z,97.15
2023-01-23T16:35:44.518Z,97.11
2023-01-23T16:38:27.175Z,96.85
2023-01-23T16:40:57.060Z,97.53
2023-01-23T16:43:24.809Z,96.81
2023-01-23T16:45:56.127Z,97.17
2023-01-23T16:48:27.989Z,96.93
2023-01-23T16:51:04.889Z,96.86
2023-01-23T16:53:42.632Z,97.72
2023-01-23T16:56:21.022Z,97.19
2023-01-23T16:58:49.728Z,97.29
2023-01-23T17:01:23.114Z,97.01
2023-01-23T17:04:00.966Z,96.79
2023-01-23T17:06:28.886Z,96.62
2023-01-23T17:08:56.817Z,96.91
2023-01-23T17:11:29.600Z,97.30
2023-01-23T17:14:05.412Z,96.95
2023-01-23T17:16:33.105Z,97.05
2023-01-23T17:19:06.770Z,97.68
2023-01-23T17:21:35.041Z,96.91
2023-01-23T17:24:02.675Z,96.87
2023-01-23T17:26:30.312Z,96.93
2023-01-23T17:28:58.046Z,97.29
2023-01-23T17:31:28.805Z,97.30
2023-01-23T17:33:56.708Z,96.63
2023-01-23T17:36:26.419Z,96.84
2023-01-23T17:38:57.451Z,96.74
2023-01-23T17:41:25.215Z,96.69
2023-01-23T17:43:53.270Z,96.86
2023-01-23T17:46:29.485Z,96.86
2023-01-23T17:48:57.448Z,96.69
2023-01-23T17:51:26.770Z,96.17
2023-01-23T17:53:55.122Z,96.30
2023-01-23T17:56:22.929Z,96.43
2023-01-23T17:58:50.765Z,96.88
2023-01-23T18:01:22.390Z,96.60
2023-01-23T18:03:51.388Z,96.26
2023-01-23T18:06:19.725Z,96.04
2023-01-23T18:08:47.624Z,96.02
2023-01-23T18:11:23.546Z,95.94
2023-01-23T18:14:02.101Z,95.84
2023-01-23T18:16:39.991Z,95.97
2023-01-23T18:19:17.638Z,95.70
2023-01-23T18:21:47.663Z,96.36
2023-01-23T18:24:33.071Z,96.58
2023-01-23T18:27:11.878Z,96.08
2023-01-23T18:30:00.969Z,95.96
2023-01-23T18:32:52.853Z,96.29
2023-01-23T18:35:54.020Z,95.95
2023-01-23T18:38:27.525Z,96.64
2023-01-23T18:41:10.442Z,95.81
2023-01-23T18:43:42.502Z,96.03
2023-01-23T18:46:19.539Z,96.58
2023-01-23T18:48:49.562Z,95.53
2023-01-23T18:51:34.741Z,95.79
2023-01-23T18:54:14.404Z,96.30
2023-01-23T18:57:26.819Z,96.54
2023-01-23T19:00:03.821Z,95.97
2023-01-23T19:02:38.277Z,95.91
2023-01-23T19:05:13.869Z,96.70
2023-01-23T19:07:42.575Z,96.29
2023-01-23T19:10:22.017Z,96.70
2023-01-23T19:12:52.598Z,96.07
2023-01-23T19:15:38.542Z,96.22
2023-01-23T19:18:39.855Z,95.69
2023-01-23T19:21:26.385Z,96.40
2023-01-23T19:24:07.176Z,96.17
2023-01-23T19:26:41.029Z,95.94
2023-01-23T19:29:21.138Z,96.54
2023-01-23T19:32:06.500Z,95.96
2023-01-23T19:34:35.228Z,95.64
2023-01-23T19:37:04.020Z,95.80
2023-01-23T19:39:32.042Z,96.01
2023-01-23T19:42:00.525Z,96.01
2023-01-23T19:44:30.041Z,95.59
2023-01-23T19:46:58.086Z,95.43
2023-01-23T19:49:26.034Z,95.58
2023-01-23T19:51:53.728Z,95.95
2023-01-23T19:54:24.079Z,95.51
2023-01-23T19:56:52.388Z,95.51
2023-01-23T19:59:20.960Z,96.03
2023-01-23T20:01:52.500Z,95.39
2023-01-23T20:04:24.098Z,95.70
2023-01-23T20:06:52.517Z,95.55
2023-01-23T20:09:21.104Z,95.88
2023-01-23T20:11:49.311Z,95.67
2023-01-23T20:14:16.995Z,95.87
2023-01-23T20:16:44.735Z,95.76
2023-01-23T20:19:16.582Z,95.69
2023-01-23T20:21:44.655Z,95.72
2023-01-23T20:24:13.237Z,95.90
2023-01-23T20:26:41.460Z,95.59
2023-01-23T20:29:09.293Z,95.48
2023-01-23T20:31:37.170Z,95.48
2023-01-23T20:34:04.968Z,95.26
2023-01-23T20:36:32.650Z,95.69
2023-01-23T20:39:00.276Z,95.65
2023-01-23T20:41:28.554Z,95.74
2023-01-23T20:43:56.189Z,95.48
2023-01-23T20:46:24.024Z,95.69
2023-01-23T20:48:51.777Z,95.32
2023-01-23T20:51:19.875Z,95.22
2023-01-23T20:53:47.920Z,95.40
2023-01-23T20:56:20.397Z,94.81
2023-01-23T20:59:07.825Z,95.60
2023-01-23T21:01:57.808Z,95.45
2023-01-23T21:04:28.599Z,95.21
2023-01-23T21:06:56.597Z,95.23
2023-01-23T21:09:24.436Z,95.41
2023-01-23T21:11:53.074Z,95.24
2023-01-23T21:14:21.850Z,95.05
2023-01-23T21:16:49.771Z,95.19
2023-01-23T21:19:18.264Z,94.44
2023-01-23T21:21:46.422Z,94.90
2023-01-23T21:24:14.306Z,94.75
2023-01-23T21:26:42.118Z,94.15
2023-01-23T21:29:10.068Z,95.10
2023-01-23T21:31:39.529Z,94.13
2023-01-23T21:34:10.740Z,95.03
2023-01-23T21:36:39.334Z,94.86
2023-01-23T21:39:09.322Z,94.40
2023-01-23T21:41:37.895Z,94.83
2023-01-23T21:44:05.597Z,94.26
2023-01-23T21:46:33.297Z,94.29
2023-01-23T21:49:01.079Z,94.88
2023-01-23T21:51:28.965Z,94.74
2023-01-23T21:53:56.546Z,94.75
2023-01-23T21:56:24.499Z,94.43
2023-01-23T21:58:53.185Z,94.45
2023-01-23T22:01:32.951Z,93.91
2023-01-23T22:04:02.576Z,94.35
2023-01-23T22:06:31.571Z,94.53
2023-01-23T22:08:59.300Z,94.30
2023-01-23T22:11:27.046Z,94.33
2023-01-23T22:13:54.743Z,94.08
2023-01-23T22:16:28.541Z,93.97
2023-01-23T22:19:08.544Z,93.73
2023-01-23T22:21:36.209Z,93.70
2023-01-23T22:24:04.108Z,94.18
2023-01-23T22:26:31.899Z,94.61
2023-01-23T22:28:59.582Z,93.73
2023-01-23T22:31:27.219Z,93.92
2023-01-23T22:33:55.424Z,93.58
2023-01-23T22:36:23.008Z,93.97
2023-01-23T22:38:54.991Z,93.99
2023-01-23T22:41:23.959Z,93.95
2023-01-23T22:43:56.143Z,93.75
2023-01-23T22:46:24.352Z,94.15
2023-01-23T22:48:52.099Z,93.89
2023-01-23T22:51:24.380Z,93.66
2023-01-23T22:53:53.626Z,94.28
2023-01-23T22:56:22.012Z,93.75
2023-01-23T22:58:52.025Z,93.74
2023-01-23T23:01:23.390Z,93.28
2023-01-23T23:03:51.538Z,93.70
2023-01-23T23:06:20.375Z,93.64
2023-01-23T23:08:48.760Z,93.54
2023-01-23T23:11:22.040Z,93.66
2023-01-23T23:13:50.601Z,94.01
2023-01-23T23:16:22.135Z,93.74
2023-01-23T23:18:53.794Z,93.51
2023-01-23T23:21:24.334Z,93.52
2023-01-23T23:23:56.740Z,93.64
2023-01-23T23:26:26.655Z,93.14
2023-01-23T23:28:55.223Z,93.65
2023-01-23T23:31:23.095Z,92.98
2023-01-23T23:33:50.943Z,92.74
2023-01-23T23:36:18.758Z,93.28
2023-01-23T23:38:46.479Z,93.21
2023-01-23T23:41:15.625Z,93.00
2023-01-23T23:43:44.056Z,92.99
2023-01-23T23:46:13.386Z,92.75
2023-01-23T23:48:41.817Z,92.69
2023-01-23T23:51:13.582Z,92.76
2023-01-23T23:53:41.992Z,92.88
2023-01-23T23:56:14.146Z,92.84
2023-01-23T23:58:41.794Z,93.19
